Time,TemperatureF,DewpointF,PressureIn,WindDirection,WindDirectionDegrees,WindSpeedMPH,WindSpeedGustMPH,Humidity,HourlyPrecipIn,Conditions,Clouds,dailyrainin,SoftwareType,DateUTC
2013-02-12 00:56:00,31.0,6.8,30.24,East,90,0.0,2.7,31,-99.99,,,-99.99,WSDL version 423,2013-02-12 08:56:00,
2013-02-12 01:01:00,30.9,6.7,30.24,East,90,0.7,2.7,31,-99.99,,,-99.99,WSDL version 423,2013-02-12 09:01:00,
2013-02-12 01:06:00,31.0,6.8,30.24,East,90,0.0,2.7,31,-99.99,,,-99.99,WSDL version 423,2013-02-12 09:06:00,
2013-02-12 01:11:00,31.1,6.8,30.24,East,90,0.0,2.7,31,-99.99,,,-99.99,WSDL version 423,2013-02-12 09:11:00,
2013-02-12 01:16:00,30.8,6.6,30.21,East,90,0.0,2.7,31,-99.99,,,-99.99,WSDL version 423,2013-02-12 09:16:00,
2013-02-12 01:21:00,30.5,6.3,30.21,NE,50,2.3,4.0,31,-99.99,,,-99.99,WSDL version 423,2013-02-12 09:21:00,
2013-02-12 01:23:00,30.5,6.3,30.24,NNE,23,0.0,0.0,31,-99.99,,,-99.99,WSDL version 423,2013-02-12 09:23:00,
2013-02-12 01:24:00,30.2,6.0,30.24,NNE,23,0.0,0.0,31,-99.99,,,-99.99,WSDL version 423,2013-02-12 09:24:00,
2013-02-12 01:25:00,30.2,6.0,30.24,NNE,23,0.0,0.0,31,-99.99,,,-99.99,WSDL version 423,2013-02-12 09:25:00,
2013-02-12 01:26:00,30.7,6.5,30.21,NNE,23,0.0,4.0,31,-99.99,,,-99.99,WSDL version 423,2013-02-12 09:26:00,
2013-02-12 01:27:00,30.2,6.0,30.24,NNE,23,0.0,3.1,31,-99.99,,,-99.99,WSDL version 423,2013-02-12 09:27:00,
2013-02-12 01:28:00,30.2,6.1,30.24,NW,305,1.0,4.9,31,-99.99,,,-99.99,WSDL version 423,2013-02-12 09:28:00,
2013-02-12 01:29:00,30.4,6.2,30.24,WSW,238,2.4,4.9,31,-99.99,,,-99.99,WSDL version 423,2013-02-12 09:29:00,
2013-02-12 01:30:00,30.5,6.3,30.24,SW,218,3.1,5.4,31,-99.99,,,-99.99,WSDL version 423,2013-02-12 09:30:00,
2013-02-12 01:31:00,30.0,5.9,30.24,NNE,23,0.0,2.2,31,-99.99,,,-99.99,WSDL version 423,2013-02-12 09:31:00,
2013-02-12 01:32:00,31.0,6.7,30.24,SW,214,3.1,5.4,31,-99.99,,,-99.99,WSDL version 423,2013-02-12 09:32:00,
2013-02-12 01:33:00,31.4,7.1,30.24,SW,220,3.4,5.4,31,-99.99,,,-99.99,WSDL version 423,2013-02-12 09:33:00,
2013-02-12 01:34:00,31.7,6.9,30.24,SW,223,3.8,5.4,31,-99.99,,,-99.99,WSDL version 423,2013-02-12 09:34:00,
2013-02-12 01:35:00,32.2,6.3,30.24,SW,225,3.6,5.4,31,-99.99,,,-99.99,WSDL version 423,2013-02-12 09:35:00,
2013-02-12 01:36:00,29.7,5.6,30.24,NNE,23,0.0,2.2,31,-99.99,,,-99.99,WSDL version 423,2013-02-12 09:36:00,
2013-02-12 01:37:00,32.5,5.7,30.24,SW,225,2.4,5.4,31,-99.99,,,-99.99,WSDL version 423,2013-02-12 09:37:00,
2013-02-12 01:38:00,32.7,5.3,30.24,SW,220,1.2,5.4,31,-99.99,,,-99.99,WSDL version 423,2013-02-12 09:38:00,
2013-02-12 01:39:00,32.7,5.3,30.24,SSW,208,1.1,5.4,31,-99.99,,,-99.99,WSDL version 423,2013-02-12 09:39:00,
2013-02-12 01:40:00,32.6,5.3,30.24,SSW,203,2.5,5.4,31,-99.99,,,-99.99,WSDL version 423,2013-02-12 09:40:00,
2013-02-12 01:41:00,29.6,6.0,30.24,NNE,23,0.0,2.2,32,-99.99,,,-99.99,WSDL version 423,2013-02-12 09:41:00,
2013-02-12 01:42:00,32.4,5.1,30.24,SSW,203,1.3,5.4,31,-99.99,,,-99.99,WSDL version 423,2013-02-12 09:42:00,
2013-02-12 01:43:00,32.2,5.9,30.24,SSW,203,0.0,4.0,31,-99.99,,,-99.99,WSDL version 423,2013-02-12 09:43:00,
2013-02-12 01:44:00,32.1,6.3,30.24,SSW,203,0.0,3.1,31,-99.99,,,-99.99,WSDL version 423,2013-02-12 09:44:00,
2013-02-12 01:45:00,31.9,6.6,30.24,SSW,203,0.0,3.1,31,-99.99,,,-99.99,WSDL version 423,2013-02-12 09:45:00,
2013-02-12 01:46:00,29.5,6.0,30.24,NNE,23,0.0,0.0,32,-99.99,,,-99.99,WSDL version 423,2013-02-12 09:46:00,
2013-02-12 01:47:00,31.7,7.4,30.24,SSW,203,0.0,3.1,31,-99.99,,,-99.99,WSDL version 423,2013-02-12 09:47:00,
2013-02-12 01:48:00,31.6,7.3,30.24,SSW,203,0.0,3.1,31,-99.99,,,-99.99,WSDL version 423,2013-02-12 09:48:00,
2013-02-12 01:49:00,31.5,7.2,30.24,SSW,203,0.0,3.1,31,-99.99,,,-99.99,WSDL version 423,2013-02-12 09:49:00,
2013-02-12 01:50:00,31.3,7.1,30.24,SSW,203,0.0,2.7,31,-99.99,,,-99.99,WSDL version 423,2013-02-12 09:50:00,
2013-02-12 01:51:00,29.4,6.0,30.24,NNE,23,0.0,0.0,32,-99.99,,,-99.99,WSDL version 423,2013-02-12 09:51:00,
2013-02-12 01:52:00,31.1,6.9,30.24,SSW,203,0.0,2.2,31,-99.99,,,-99.99,WSDL version 423,2013-02-12 09:52:00,
2013-02-12 01:53:00,31.0,6.7,30.24,SSW,203,0.0,0.0,31,-99.99,,,-99.99,WSDL version 423,2013-02-12 09:53:00,
2013-02-12 01:54:00,30.8,6.6,30.24,SSW,203,0.0,0.0,31,-99.99,,,-99.99,WSDL version 423,2013-02-12 09:54:00,
2013-02-12 01:55:00,30.6,6.4,30.24,SSW,203,0.0,0.0,31,-99.99,,,-99.99,WSDL version 423,2013-02-12 09:55:00,
2013-02-12 01:56:00,29.6,6.1,30.24,NNE,23,0.0,2.2,32,-99.99,,,-99.99,WSDL version 423,2013-02-12 09:56:00,
2013-02-12 01:57:00,30.3,6.1,30.24,SSW,203,0.0,0.0,31,-99.99,,,-99.99,WSDL version 423,2013-02-12 09:57:00,
2013-02-12 01:58:00,30.1,6.0,30.24,SSW,203,0.0,2.7,31,-99.99,,,-99.99,WSDL version 423,2013-02-12 09:58:00,
2013-02-12 01:59:00,30.1,5.9,30.24,SSW,203,1.0,2.7,31,-99.99,,,-99.99,WSDL version 423,2013-02-12 09:59:00,
2013-02-12 02:00:00,30.0,5.8,30.24,SSW,203,1.0,2.7,31,-99.99,,,-99.99,WSDL version 423,2013-02-12 10:00:00,
2013-02-12 02:01:00,29.7,6.2,30.24,NNE,23,0.0,2.2,32,-99.99,,,-99.99,WSDL version 423,2013-02-12 10:01:00,
2013-02-12 02:02:00,29.7,5.6,30.24,SSW,203,0.0,2.7,31,-99.99,,,-99.99,WSDL version 423,2013-02-12 10:02:00,
2013-02-12 02:03:00,29.6,5.5,30.24,SSW,203,0.0,2.7,31,-99.99,,,-99.99,WSDL version 423,2013-02-12 10:03:00,
2013-02-12 02:04:00,29.5,5.4,30.24,SSW,203,0.0,2.7,31,-99.99,,,-99.99,WSDL version 423,2013-02-12 10:04:00,
2013-02-12 02:05:00,29.5,5.5,30.24,SSW,203,0.0,2.7,32,-99.99,,,-99.99,WSDL version 423,2013-02-12 10:05:00,
2013-02-12 02:06:00,29.8,6.3,30.24,NNE,23,0.0,2.2,32,-99.99,,,-99.99,WSDL version 423,2013-02-12 10:06:00,
2013-02-12 02:07:00,29.5,5.7,30.24,SSW,203,0.0,2.7,32,-99.99,,,-99.99,WSDL version 423,2013-02-12 10:07:00,
2013-02-12 02:08:00,29.4,5.7,30.24,SSW,203,0.0,2.2,32,-99.99,,,-99.99,WSDL version 423,2013-02-12 10:08:00,
2013-02-12 02:09:00,29.3,5.9,30.24,SSW,203,0.0,0.0,32,-99.99,,,-99.99,WSDL version 423,2013-02-12 10:09:00,
2013-02-12 02:10:00,29.2,5.8,30.24,SSW,203,0.0,0.0,32,-99.99,,,-99.99,WSDL version 423,2013-02-12 10:10:00,
2013-02-12 02:11:00,30.1,6.2,30.24,NNE,23,0.0,3.1,31,-99.99,,,-99.99,WSDL version 423,2013-02-12 10:11:00,
2013-02-12 02:12:00,28.9,5.5,30.24,SSW,203,0.0,0.0,32,-99.99,,,-99.99,WSDL version 423,2013-02-12 10:12:00,
2013-02-12 02:13:00,28.8,5.4,30.24,SSW,203,0.0,0.0,32,-99.99,,,-99.99,WSDL version 423,2013-02-12 10:13:00,
2013-02-12 02:14:00,28.7,5.3,30.24,SSW,203,0.0,0.0,32,-99.99,,,-99.99,WSDL version 423,2013-02-12 10:14:00,
2013-02-12 02:15:00,28.7,5.3,30.24,SSW,203,0.0,0.0,32,-99.99,,,-99.99,WSDL version 423,2013-02-12 10:15:00,
2013-02-12 02:16:00,31.1,6.9,30.24,NNE,23,2.5,3.1,31,-99.99,,,-99.99,WSDL version 423,2013-02-12 10:16:00,
2013-02-12 02:17:00,28.5,5.1,30.24,SSW,203,0.0,0.0,32,-99.99,,,-99.99,WSDL version 423,2013-02-12 10:17:00,
2013-02-12 02:18:00,28.4,5.1,30.24,SSW,203,0.0,0.0,32,-99.99,,,-99.99,WSDL version 423,2013-02-12 10:18:00,
2013-02-12 02:19:00,28.3,5.0,30.24,SSW,203,0.0,0.0,32,-99.99,,,-99.99,WSDL version 423,2013-02-12 10:19:00,
2013-02-12 02:20:00,28.3,4.9,30.24,SSW,203,0.0,0.0,32,-99.99,,,-99.99,WSDL version 423,2013-02-12 10:20:00,
2013-02-12 02:21:00,31.6,7.3,30.24,NNE,23,0.0,3.1,31,-99.99,,,-99.99,WSDL version 423,2013-02-12 10:21:00,
2013-02-12 02:22:00,28.1,4.8,30.24,SSW,203,0.0,0.0,32,-99.99,,,-99.99,WSDL version 423,2013-02-12 10:22:00,
2013-02-12 02:23:00,28.1,4.8,30.24,SSW,203,0.0,0.0,32,-99.99,,,-99.99,WSDL version 423,2013-02-12 10:23:00,
2013-02-12 02:24:00,28.0,4.7,30.24,SSW,203,0.0,0.0,32,-99.99,,,-99.99,WSDL version 423,2013-02-12 10:24:00,
2013-02-12 02:25:00,28.1,4.7,30.24,SSW,203,0.0,0.0,32,-99.99,,,-99.99,WSDL version 423,2013-02-12 10:25:00,
2013-02-12 02:26:00,31.1,6.9,30.24,NNE,23,0.0,2.7,31,-99.99,,,-99.99,WSDL version 423,2013-02-12 10:26:00,
2013-02-12 02:27:00,28.0,4.7,30.24,SSW,203,0.0,0.0,32,-99.99,,,-99.99,WSDL version 423,2013-02-12 10:27:00,
2013-02-12 02:28:00,28.0,4.7,30.24,SSW,203,0.0,0.0,32,-99.99,,,-99.99,WSDL version 423,2013-02-12 10:28:00,
2013-02-12 02:29:00,27.9,4.6,30.24,SSW,203,0.0,0.0,32,-99.99,,,-99.99,WSDL version 423,2013-02-12 10:29:00,
2013-02-12 02:30:00,27.8,4.5,30.24,SSW,203,0.0,0.0,32,-99.99,,,-99.99,WSDL version 423,2013-02-12 10:30:00,
2013-02-12 02:31:00,30.9,6.7,30.24,NNE,23,0.0,0.0,31,-99.99,,,-99.99,WSDL version 423,2013-02-12 10:31:00,
2013-02-12 02:32:00,27.7,4.6,30.24,SSW,203,0.0,0.0,33,-99.99,,,-99.99,WSDL version 423,2013-02-12 10:32:00,
2013-02-12 02:33:00,27.7,4.8,30.24,SSW,203,0.0,0.0,33,-99.99,,,-99.99,WSDL version 423,2013-02-12 10:33:00,
2013-02-12 02:34:00,27.6,4.8,30.24,SSW,203,0.0,0.0,33,-99.99,,,-99.99,WSDL version 423,2013-02-12 10:34:00,
2013-02-12 02:36:00,27.5,4.8,30.24,SSW,203,0.0,0.0,33,-99.99,,,-99.99,WSDL version 423,2013-02-12 10:36:00,
2013-02-12 02:37:00,27.4,4.7,30.24,SSW,203,0.0,0.0,33,-99.99,,,-99.99,WSDL version 423,2013-02-12 10:37:00,
2013-02-12 02:38:00,27.3,4.6,30.24,SSW,203,0.0,0.0,33,-99.99,,,-99.99,WSDL version 423,2013-02-12 10:38:00,
2013-02-12 02:39:00,27.2,4.6,30.24,SSW,203,0.0,0.0,33,-99.99,,,-99.99,WSDL version 423,2013-02-12 10:39:00,
2013-02-12 02:43:00,27.1,4.4,30.24,SSW,203,0.0,0.0,33,-99.99,,,-99.99,WSDL version 423,2013-02-12 10:43:00,
2013-02-12 02:45:00,27.1,4.4,30.24,SSW,203,0.0,0.0,33,-99.99,,,-99.99,WSDL version 423,2013-02-12 10:45:00,
2013-02-12 02:46:00,27.0,4.4,30.24,SSW,203,0.0,0.0,33,-99.99,,,-99.99,WSDL version 423,2013-02-12 10:46:00,
2013-02-12 02:48:00,27.2,4.5,30.24,SSW,203,0.0,0.0,33,-99.99,,,-99.99,WSDL version 423,2013-02-12 10:48:00,
2013-02-12 02:49:00,27.3,4.6,30.24,SSW,203,0.0,0.0,33,-99.99,,,-99.99,WSDL version 423,2013-02-12 10:49:00,
2013-02-12 02:52:00,27.3,4.7,30.24,SSW,203,0.0,0.0,33,-99.99,,,-99.99,WSDL version 423,2013-02-12 10:52:00,
2013-02-12 02:59:00,27.1,4.5,30.24,SSW,203,0.0,0.0,33,-99.99,,,-99.99,WSDL version 423,2013-02-12 10:59:00,
2013-02-12 03:01:00,27.2,4.5,30.24,SSW,203,0.0,0.0,33,-99.99,,,-99.99,WSDL version 423,2013-02-12 11:01:00,
2013-02-12 03:02:00,27.3,4.6,30.24,SSW,203,0.0,0.0,33,-99.99,,,-99.99,WSDL version 423,2013-02-12 11:02:00,
2013-02-12 03:24:00,28.6,5.2,30.27,SSW,203,0.0,0.0,32,-99.99,,,-99.99,WSDL version 423,2013-02-12 11:24:00,
2013-02-12 03:25:00,28.6,5.2,30.27,SSW,203,0.0,0.0,32,-99.99,,,-99.99,WSDL version 423,2013-02-12 11:25:00,
2013-02-12 03:26:00,28.6,5.2,30.27,SSW,203,0.0,0.0,32,-99.99,,,-99.99,WSDL version 423,2013-02-12 11:26:00,
2013-02-12 03:27:00,28.6,5.2,30.27,SSW,203,0.0,0.0,32,-99.99,,,-99.99,WSDL version 423,2013-02-12 11:27:00,
2013-02-12 03:28:00,28.6,5.2,30.27,SSW,203,0.0,0.0,32,-99.99,,,-99.99,WSDL version 423,2013-02-12 11:28:00,
2013-02-12 03:29:00,28.6,5.3,30.27,SSW,203,0.0,0.0,33,-99.99,,,-99.99,WSDL version 423,2013-02-12 11:29:00,
2013-02-12 03:30:00,28.5,5.3,30.27,SSW,203,0.0,0.0,33,-99.99,,,-99.99,WSDL version 423,2013-02-12 11:30:00,
2013-02-12 03:31:00,28.5,5.4,30.27,SSW,203,0.0,0.0,33,-99.99,,,-99.99,WSDL version 423,2013-02-12 11:31:00,
2013-02-12 03:32:00,28.4,5.4,30.27,SSW,203,0.0,0.0,33,-99.99,,,-99.99,WSDL version 423,2013-02-12 11:32:00,
2013-02-12 03:33:00,28.2,5.5,30.27,SSW,203,0.0,0.0,33,-99.99,,,-99.99,WSDL version 423,2013-02-12 11:33:00,
2013-02-12 03:34:00,28.1,5.4,30.27,SSW,203,0.0,0.0,33,-99.99,,,-99.99,WSDL version 423,2013-02-12 11:34:00,
2013-02-12 03:35:00,28.1,5.3,30.27,SSW,203,0.0,0.0,33,-99.99,,,-99.99,WSDL version 423,2013-02-12 11:35:00,
2013-02-12 03:36:00,28.0,5.3,30.27,SSW,203,0.0,0.0,33,-99.99,,,-99.99,WSDL version 423,2013-02-12 11:36:00,
2013-02-12 03:37:00,28.0,5.2,30.27,SSW,203,0.0,0.0,33,-99.99,,,-99.99,WSDL version 423,2013-02-12 11:37:00,
2013-02-12 03:38:00,27.9,5.2,30.27,SSW,203,0.0,0.0,33,-99.99,,,-99.99,WSDL version 423,2013-02-12 11:38:00,
2013-02-12 03:39:00,27.8,5.1,30.27,SSW,203,0.0,0.0,33,-99.99,,,-99.99,WSDL version 423,2013-02-12 11:39:00,
2013-02-12 03:40:00,27.8,5.1,30.27,SSW,203,0.0,0.0,33,-99.99,,,-99.99,WSDL version 423,2013-02-12 11:40:00,
2013-02-12 03:41:00,27.7,5.0,30.27,SSW,203,0.0,0.0,33,-99.99,,,-99.99,WSDL version 423,2013-02-12 11:41:00,
2013-02-12 03:42:00,27.7,4.5,30.24,SSW,203,0.0,0.0,33,-99.99,,,-99.99,WSDL version 423,2013-02-12 11:42:00,
2013-02-12 03:43:00,27.7,5.0,30.27,SSW,203,0.0,0.0,33,-99.99,,,-99.99,WSDL version 423,2013-02-12 11:43:00,
2013-02-12 03:44:00,27.7,5.0,30.27,SSW,203,0.0,0.0,33,-99.99,,,-99.99,WSDL version 423,2013-02-12 11:44:00,
2013-02-12 03:45:00,27.6,4.9,30.27,SSW,203,0.0,0.0,33,-99.99,,,-99.99,WSDL version 423,2013-02-12 11:45:00,
2013-02-12 03:46:00,27.6,4.9,30.27,SSW,203,0.0,0.0,33,-99.99,,,-99.99,WSDL version 423,2013-02-12 11:46:00,
2013-02-12 03:47:00,27.5,4.8,30.27,SSW,203,0.0,0.0,33,-99.99,,,-99.99,WSDL version 423,2013-02-12 11:47:00,
2013-02-12 03:48:00,27.4,4.7,30.27,SSW,203,0.0,0.0,33,-99.99,,,-99.99,WSDL version 423,2013-02-12 11:48:00,
2013-02-12 03:49:00,27.2,4.6,30.27,SSW,203,0.0,0.0,33,-99.99,,,-99.99,WSDL version 423,2013-02-12 11:49:00,
2013-02-12 03:50:00,27.1,4.4,30.27,SSW,203,0.0,0.0,33,-99.99,,,-99.99,WSDL version 423,2013-02-12 11:50:00,
2013-02-12 03:51:00,27.2,4.5,30.24,SSW,203,0.0,0.0,33,-99.99,,,-99.99,WSDL version 423,2013-02-12 11:51:00,
2013-02-12 03:52:00,26.8,4.2,30.27,SSW,203,0.0,0.0,34,-99.99,,,-99.99,WSDL version 423,2013-02-12 11:52:00,
2013-02-12 03:53:00,26.6,4.2,30.27,SSW,203,0.0,0.0,34,-99.99,,,-99.99,WSDL version 423,2013-02-12 11:53:00,
2013-02-12 03:54:00,26.4,4.0,30.27,SSW,203,0.0,0.0,33,-99.99,,,-99.99,WSDL version 423,2013-02-12 11:54:00,
2013-02-12 03:55:00,26.2,3.8,30.27,SSW,203,0.0,0.0,33,-99.99,,,-99.99,WSDL version 423,2013-02-12 11:55:00,
2013-02-12 03:56:00,26.0,3.7,30.27,SSW,203,0.0,0.0,33,-99.99,,,-99.99,WSDL version 423,2013-02-12 11:56:00,
2013-02-12 03:57:00,25.9,3.6,30.27,SSW,203,0.0,0.0,34,-99.99,,,-99.99,WSDL version 423,2013-02-12 11:57:00,
2013-02-12 03:58:00,27.1,4.5,30.24,SSW,203,0.0,0.0,33,-99.99,,,-99.99,WSDL version 423,2013-02-12 11:58:00,
2013-02-12 03:59:00,25.8,3.7,30.27,SSW,203,0.0,0.0,34,-99.99,,,-99.99,WSDL version 423,2013-02-12 11:59:00,
2013-02-12 04:00:00,25.8,3.8,30.27,SSW,203,0.0,0.0,34,-99.99,,,-99.99,WSDL version 423,2013-02-12 12:00:00,
2013-02-12 04:01:00,25.9,3.9,30.27,SSW,203,0.0,0.0,34,-99.99,,,-99.99,WSDL version 423,2013-02-12 12:01:00,
2013-02-12 04:02:00,26.0,4.1,30.27,SSW,203,0.0,0.0,34,-99.99,,,-99.99,WSDL version 423,2013-02-12 12:02:00,
2013-02-12 04:03:00,26.1,4.1,30.27,SSW,203,0.0,0.0,34,-99.99,,,-99.99,WSDL version 423,2013-02-12 12:03:00,
2013-02-12 04:04:00,27.3,4.6,30.24,SSW,203,0.0,0.0,33,-99.99,,,-99.99,WSDL version 423,2013-02-12 12:04:00,
2013-02-12 04:05:00,26.2,4.3,30.27,SSW,203,0.0,0.0,34,-99.99,,,-99.99,WSDL version 423,2013-02-12 12:05:00,
2013-02-12 04:06:00,26.2,4.2,30.27,SSW,203,0.0,0.0,33,-99.99,,,-99.99,WSDL version 423,2013-02-12 12:06:00,
2013-02-12 04:07:00,26.2,4.0,30.27,SSW,203,0.0,0.0,33,-99.99,,,-99.99,WSDL version 423,2013-02-12 12:07:00,
2013-02-12 04:08:00,26.2,3.9,30.27,SSW,203,0.0,0.0,33,-99.99,,,-99.99,WSDL version 423,2013-02-12 12:08:00,
2013-02-12 04:09:00,27.1,4.4,30.24,SSW,203,0.0,0.0,33,-99.99,,,-99.99,WSDL version 423,2013-02-12 12:09:00,
2013-02-12 04:10:00,26.1,3.6,30.27,SSW,203,0.0,0.0,33,-99.99,,,-99.99,WSDL version 423,2013-02-12 12:10:00,
2013-02-12 04:11:00,26.1,3.6,30.27,SSW,203,0.0,0.0,33,-99.99,,,-99.99,WSDL version 423,2013-02-12 12:11:00,
2013-02-12 04:12:00,26.1,3.6,30.27,SSW,203,0.0,0.0,33,-99.99,,,-99.99,WSDL version 423,2013-02-12 12:12:00,
2013-02-12 04:13:00,26.1,3.6,30.27,SSW,203,0.0,0.0,33,-99.99,,,-99.99,WSDL version 423,2013-02-12 12:13:00,
2013-02-12 04:14:00,27.4,4.7,30.24,SSW,203,0.0,0.0,33,-99.99,,,-99.99,WSDL version 423,2013-02-12 12:14:00,
2013-02-12 04:15:00,26.0,3.5,30.27,SSW,203,0.0,0.0,33,-99.99,,,-99.99,WSDL version 423,2013-02-12 12:15:00,
2013-02-12 04:16:00,25.9,3.4,30.27,SSW,203,0.0,0.0,33,-99.99,,,-99.99,WSDL version 423,2013-02-12 12:16:00,
2013-02-12 04:17:00,25.8,3.3,30.27,SSW,203,0.0,0.0,33,-99.99,,,-99.99,WSDL version 423,2013-02-12 12:17:00,
2013-02-12 04:18:00,25.7,3.2,30.30,SSW,203,0.0,0.0,33,-99.99,,,-99.99,WSDL version 423,2013-02-12 12:18:00,
2013-02-12 04:19:00,28.1,5.4,30.24,SSW,203,0.0,0.0,33,-99.99,,,-99.99,WSDL version 423,2013-02-12 12:19:00,
2013-02-12 04:20:00,25.6,3.1,30.30,SSW,203,0.0,0.0,33,-99.99,,,-99.99,WSDL version 423,2013-02-12 12:20:00,
2013-02-12 04:21:00,25.6,3.1,30.30,SSW,203,0.0,0.0,33,-99.99,,,-99.99,WSDL version 423,2013-02-12 12:21:00,
2013-02-12 04:22:00,25.6,3.1,30.30,SSW,203,0.0,0.0,33,-99.99,,,-99.99,WSDL version 423,2013-02-12 12:22:00,
2013-02-12 04:23:00,25.7,3.2,30.30,SSW,203,0.0,0.0,33,-99.99,,,-99.99,WSDL version 423,2013-02-12 12:23:00,
2013-02-12 04:24:00,28.0,5.3,30.24,SSW,203,0.0,0.0,33,-99.99,,,-99.99,WSDL version 423,2013-02-12 12:24:00,
2013-02-12 04:25:00,25.5,3.0,30.30,SSW,203,0.0,0.0,33,-99.99,,,-99.99,WSDL version 423,2013-02-12 12:25:00,
2013-02-12 04:26:00,25.4,2.9,30.30,SSW,203,0.0,0.0,33,-99.99,,,-99.99,WSDL version 423,2013-02-12 12:26:00,
2013-02-12 04:27:00,25.3,2.9,30.30,SSW,203,0.0,0.0,34,-99.99,,,-99.99,WSDL version 423,2013-02-12 12:27:00,
2013-02-12 04:28:00,25.2,2.9,30.30,SSW,203,0.0,0.0,34,-99.99,,,-99.99,WSDL version 423,2013-02-12 12:28:00,
2013-02-12 04:29:00,25.2,3.0,30.30,SSW,203,0.0,0.0,34,-99.99,,,-99.99,WSDL version 423,2013-02-12 12:29:00,
2013-02-12 04:30:00,25.2,3.2,30.30,SSW,203,0.0,0.0,34,-99.99,,,-99.99,WSDL version 423,2013-02-12 12:30:00,
2013-02-12 04:31:00,25.3,3.4,30.30,SSW,203,0.0,0.0,34,-99.99,,,-99.99,WSDL version 423,2013-02-12 12:31:00,
2013-02-12 04:32:00,25.4,3.5,30.30,SSW,203,0.0,0.0,34,-99.99,,,-99.99,WSDL version 423,2013-02-12 12:32:00,
2013-02-12 04:33:00,25.3,3.4,30.30,SSW,203,0.0,0.0,34,-99.99,,,-99.99,WSDL version 423,2013-02-12 12:33:00,
2013-02-12 04:34:00,25.3,3.4,30.30,SSW,203,0.0,0.0,34,-99.99,,,-99.99,WSDL version 423,2013-02-12 12:34:00,
2013-02-12 04:35:00,25.2,3.3,30.30,SSW,203,0.0,2.7,34,-99.99,,,-99.99,WSDL version 423,2013-02-12 12:35:00,
2013-02-12 04:37:00,24.9,3.1,30.30,SSW,203,0.0,2.7,34,-99.99,,,-99.99,WSDL version 423,2013-02-12 12:37:00,
2013-02-12 04:39:00,25.0,3.2,30.30,SSW,203,0.0,2.7,34,-99.99,,,-99.99,WSDL version 423,2013-02-12 12:39:00,
2013-02-12 04:40:00,25.1,3.2,30.30,SSW,203,0.0,2.7,34,-99.99,,,-99.99,WSDL version 423,2013-02-12 12:40:00,
2013-02-12 04:41:00,25.1,3.2,30.30,SSW,203,0.0,2.7,34,-99.99,,,-99.99,WSDL version 423,2013-02-12 12:41:00,
2013-02-12 04:46:00,25.3,3.4,30.30,SSW,203,0.0,2.2,34,-99.99,,,-99.99,WSDL version 423,2013-02-12 12:46:00,
2013-02-12 04:47:00,25.3,3.4,30.30,SSW,203,0.0,2.2,34,-99.99,,,-99.99,WSDL version 423,2013-02-12 12:47:00,
2013-02-12 04:48:00,25.3,3.4,30.30,SSW,203,0.0,2.2,34,-99.99,,,-99.99,WSDL version 423,2013-02-12 12:48:00,
2013-02-12 04:51:00,25.3,3.4,30.30,SSW,203,0.0,2.2,34,-99.99,,,-99.99,WSDL version 423,2013-02-12 12:51:00,
2013-02-12 04:52:00,25.2,3.3,30.30,SSW,203,0.0,0.0,34,-99.99,,,-99.99,WSDL version 423,2013-02-12 12:52:00,
2013-02-12 04:55:00,25.1,3.2,30.30,SSW,203,0.0,0.0,34,-99.99,,,-99.99,WSDL version 423,2013-02-12 12:55:00,
2013-02-12 04:56:00,25.1,3.2,30.30,SSW,203,0.0,0.0,34,-99.99,,,-99.99,WSDL version 423,2013-02-12 12:56:00,
2013-02-12 05:02:00,24.8,3.5,30.30,SSW,203,0.0,0.0,35,-99.99,,,-99.99,WSDL version 423,2013-02-12 13:02:00,
2013-02-12 05:46:00,25.1,3.2,30.30,SSW,203,0.0,2.7,34,-99.99,,,-99.99,WSDL version 423,2013-02-12 13:46:00,
2013-02-12 05:52:00,25.1,3.2,30.30,SSW,203,0.0,2.7,34,-99.99,,,-99.99,WSDL version 423,2013-02-12 13:52:00,
2013-02-12 05:59:00,25.3,3.4,30.30,SSW,203,0.0,2.2,34,-99.99,,,-99.99,WSDL version 423,2013-02-12 13:59:00,
2013-02-12 06:04:00,25.1,3.2,30.30,SSW,203,0.0,0.0,34,-99.99,,,-99.99,WSDL version 423,2013-02-12 14:04:00,
2013-02-12 06:09:00,24.9,3.3,30.30,SSW,203,0.0,0.0,35,-99.99,,,-99.99,WSDL version 423,2013-02-12 14:09:00,
2013-02-12 06:14:00,24.7,3.4,30.30,SSW,203,0.0,0.0,35,-99.99,,,-99.99,WSDL version 423,2013-02-12 14:14:00,
2013-02-12 06:20:00,24.6,3.6,30.30,SSW,203,0.0,0.0,36,-99.99,,,-99.99,WSDL version 423,2013-02-12 14:20:00,
2013-02-12 06:21:00,30.6,8.2,30.33,SSW,203,0.0,0.0,34,-99.99,,,-99.99,WSDL version 423,2013-02-12 14:21:00,
2013-02-12 06:22:00,30.9,8.3,30.33,SSW,203,0.0,0.0,33,-99.99,,,-99.99,WSDL version 423,2013-02-12 14:22:00,
2013-02-12 06:23:00,31.1,8.4,30.33,SSW,203,0.0,0.0,33,-99.99,,,-99.99,WSDL version 423,2013-02-12 14:23:00,
2013-02-12 06:24:00,31.3,8.4,30.33,SSW,203,0.0,0.0,33,-99.99,,,-99.99,WSDL version 423,2013-02-12 14:24:00,
2013-02-12 06:25:00,24.7,3.9,30.30,SSW,203,0.0,0.0,36,-99.99,,,-99.99,WSDL version 423,2013-02-12 14:25:00,
2013-02-12 06:26:00,31.8,8.0,30.33,SSW,203,0.0,0.0,33,-99.99,,,-99.99,WSDL version 423,2013-02-12 14:26:00,
2013-02-12 06:27:00,32.0,7.5,30.33,SSW,203,0.0,0.0,33,-99.99,,,-99.99,WSDL version 423,2013-02-12 14:27:00,
2013-02-12 06:28:00,32.2,7.0,30.33,SSW,203,0.0,0.0,33,-99.99,,,-99.99,WSDL version 423,2013-02-12 14:28:00,
2013-02-12 06:29:00,32.3,6.9,30.33,SSW,203,0.0,0.0,33,-99.99,,,-99.99,WSDL version 423,2013-02-12 14:29:00,
2013-02-12 06:30:00,24.6,3.8,30.27,SSW,203,0.0,0.0,36,-99.99,,,-99.99,WSDL version 423,2013-02-12 14:30:00,
2013-02-12 06:31:00,32.6,6.7,30.33,SSW,203,0.0,0.0,33,-99.99,,,-99.99,WSDL version 423,2013-02-12 14:31:00,
2013-02-12 06:32:00,32.8,6.8,30.33,SSW,203,0.0,0.0,33,-99.99,,,-99.99,WSDL version 423,2013-02-12 14:32:00,
2013-02-12 06:33:00,32.9,7.0,30.33,SSW,203,0.0,0.0,33,-99.99,,,-99.99,WSDL version 423,2013-02-12 14:33:00,
2013-02-12 06:34:00,33.1,7.0,30.33,SSW,203,0.0,0.0,32,-99.99,,,-99.99,WSDL version 423,2013-02-12 14:34:00,
2013-02-12 06:35:00,25.0,4.2,30.27,SSW,203,0.0,0.0,36,-99.99,,,-99.99,WSDL version 423,2013-02-12 14:35:00,
2013-02-12 06:36:00,33.4,6.9,30.33,SSW,203,0.0,0.0,32,-99.99,,,-99.99,WSDL version 423,2013-02-12 14:36:00,
2013-02-12 06:37:00,33.5,6.9,30.33,SSW,203,0.0,0.0,32,-99.99,,,-99.99,WSDL version 423,2013-02-12 14:37:00,
2013-02-12 06:38:00,33.6,6.8,30.33,SSW,203,0.0,0.0,32,-99.99,,,-99.99,WSDL version 423,2013-02-12 14:38:00,
2013-02-12 06:39:00,33.7,6.9,30.33,SSW,203,0.0,0.0,32,-99.99,,,-99.99,WSDL version 423,2013-02-12 14:39:00,
2013-02-12 06:40:00,25.3,4.5,30.27,SSW,203,0.0,0.0,36,-99.99,,,-99.99,WSDL version 423,2013-02-12 14:40:00,
2013-02-12 06:41:00,34.0,7.2,30.33,SSW,203,0.0,0.0,32,-99.99,,,-99.99,WSDL version 423,2013-02-12 14:41:00,
2013-02-12 06:42:00,34.2,7.4,30.33,SSW,203,0.0,0.0,32,-99.99,,,-99.99,WSDL version 423,2013-02-12 14:42:00,
2013-02-12 06:43:00,34.4,7.6,30.33,SSW,203,0.0,0.0,32,-99.99,,,-99.99,WSDL version 423,2013-02-12 14:43:00,
2013-02-12 06:44:00,34.6,7.8,30.33,SSW,203,0.0,0.0,32,-99.99,,,-99.99,WSDL version 423,2013-02-12 14:44:00,
2013-02-12 06:45:00,25.5,4.7,30.30,SSW,203,0.0,0.0,36,-99.99,,,-99.99,WSDL version 423,2013-02-12 14:45:00,
2013-02-12 06:46:00,35.0,8.0,30.33,SSW,203,0.0,0.0,31,-99.99,,,-99.99,WSDL version 423,2013-02-12 14:46:00,
2013-02-12 06:47:00,35.2,8.0,30.33,SSW,203,0.0,0.0,31,-99.99,,,-99.99,WSDL version 423,2013-02-12 14:47:00,
2013-02-12 06:48:00,35.5,8.1,30.33,SSW,203,0.0,0.0,31,-99.99,,,-99.99,WSDL version 423,2013-02-12 14:48:00,
2013-02-12 06:49:00,35.7,8.2,30.33,SSW,203,0.0,0.0,31,-99.99,,,-99.99,WSDL version 423,2013-02-12 14:49:00,
2013-02-12 06:50:00,25.5,4.7,30.30,SSW,203,0.0,0.0,36,-99.99,,,-99.99,WSDL version 423,2013-02-12 14:50:00,
2013-02-12 06:51:00,36.4,8.6,30.33,SSW,203,0.0,0.0,31,-99.99,,,-99.99,WSDL version 423,2013-02-12 14:51:00,
2013-02-12 06:52:00,36.6,8.8,30.33,SSW,203,0.0,0.0,31,-99.99,,,-99.99,WSDL version 423,2013-02-12 14:52:00,
2013-02-12 06:53:00,36.8,9.0,30.33,SSW,203,0.0,0.0,31,-99.99,,,-99.99,WSDL version 423,2013-02-12 14:53:00,
2013-02-12 06:54:00,37.0,9.2,30.33,SSW,203,0.0,0.0,31,-99.99,,,-99.99,WSDL version 423,2013-02-12 14:54:00,
2013-02-12 06:55:00,25.7,4.5,30.30,SSW,203,2.9,4.0,35,-99.99,,,-99.99,WSDL version 423,2013-02-12 14:55:00,
2013-02-12 06:56:00,37.3,9.4,30.33,SSW,203,0.0,0.0,31,-99.99,,,-99.99,WSDL version 423,2013-02-12 14:56:00,
2013-02-12 06:57:00,37.3,9.4,30.33,SSW,203,0.0,0.0,31,-99.99,,,-99.99,WSDL version 423,2013-02-12 14:57:00,
2013-02-12 06:58:00,37.4,9.4,30.33,SSW,203,0.0,0.0,31,-99.99,,,-99.99,WSDL version 423,2013-02-12 14:58:00,
2013-02-12 06:59:00,37.5,9.4,30.33,SSW,203,0.0,0.0,30,-99.99,,,-99.99,WSDL version 423,2013-02-12 14:59:00,
2013-02-12 07:00:00,25.7,4.4,30.30,SSW,203,0.0,4.0,35,-99.99,,,-99.99,WSDL version 423,2013-02-12 15:00:00,
2013-02-12 07:01:00,38.7,9.9,30.33,SSW,203,0.0,0.0,30,-99.99,,,-99.99,WSDL version 423,2013-02-12 15:01:00,
2013-02-12 07:02:00,38.7,9.9,30.33,SSW,203,0.0,0.0,30,-99.99,,,-99.99,WSDL version 423,2013-02-12 15:02:00,
2013-02-12 07:03:00,38.7,9.9,30.33,SSW,203,0.0,0.0,30,-99.99,,,-99.99,WSDL version 423,2013-02-12 15:03:00,
2013-02-12 07:05:00,26.0,4.6,30.30,SSW,203,0.0,2.7,35,-99.99,,,-99.99,WSDL version 423,2013-02-12 15:05:00,
2013-02-12 07:10:00,26.6,5.1,30.30,SSW,203,0.0,0.0,35,-99.99,,,-99.99,WSDL version 423,2013-02-12 15:10:00,
2013-02-12 07:11:00,39.2,10.4,30.33,SSW,203,0.0,0.0,30,-99.99,,,-99.99,WSDL version 423,2013-02-12 15:11:00,
2013-02-12 07:12:00,39.3,10.4,30.33,SSW,203,0.0,0.0,30,-99.99,,,-99.99,WSDL version 423,2013-02-12 15:12:00,
2013-02-12 07:13:00,39.4,10.5,30.33,SSW,203,0.0,0.0,30,-99.99,,,-99.99,WSDL version 423,2013-02-12 15:13:00,
2013-02-12 07:14:00,39.6,10.7,30.33,SSW,203,0.0,0.0,30,-99.99,,,-99.99,WSDL version 423,2013-02-12 15:14:00,
2013-02-12 07:15:00,27.4,5.9,30.33,SSW,203,0.0,3.1,35,-99.99,,,-99.99,WSDL version 423,2013-02-12 15:15:00,
2013-02-12 07:16:00,40.2,11.2,30.33,SSW,203,0.0,0.0,30,-99.99,,,-99.99,WSDL version 423,2013-02-12 15:16:00,
2013-02-12 07:17:00,40.5,11.3,30.33,SSW,203,0.0,0.0,29,-99.99,,,-99.99,WSDL version 423,2013-02-12 15:17:00,
2013-02-12 07:18:00,40.7,11.4,30.33,SSW,203,0.0,0.0,29,-99.99,,,-99.99,WSDL version 423,2013-02-12 15:18:00,
2013-02-12 07:19:00,40.7,11.3,30.33,SSW,203,0.0,0.0,29,-99.99,,,-99.99,WSDL version 423,2013-02-12 15:19:00,
2013-02-12 07:20:00,28.2,6.2,30.33,SSW,203,0.0,3.1,34,-99.99,,,-99.99,WSDL version 423,2013-02-12 15:20:00,
2013-02-12 07:25:00,29.0,6.8,30.33,SSW,203,0.0,0.0,34,-99.99,,,-99.99,WSDL version 423,2013-02-12 15:25:00,
2013-02-12 07:30:00,30.1,7.8,30.33,SSW,203,0.0,0.0,34,-99.99,,,-99.99,WSDL version 423,2013-02-12 15:30:00,
2013-02-12 08:32:00,41.0,11.2,-100.00,SSW,203,0.0,0.0,29,-99.99,,,-99.99,WSDL version 423,2013-02-12 16:32:00,
2013-02-12 08:37:00,42.0,12.1,30.33,SSW,203,0.0,0.0,29,-99.99,,,-99.99,WSDL version 423,2013-02-12 16:37:00,
2013-02-12 08:42:00,42.6,12.6,30.33,SSW,203,0.0,2.7,29,-99.99,,,-99.99,WSDL version 423,2013-02-12 16:42:00,
2013-02-12 08:47:00,41.6,11.7,30.33,ENE,68,0.0,3.6,29,-99.99,,,-99.99,WSDL version 423,2013-02-12 16:47:00,
2013-02-12 08:52:00,41.7,11.8,30.33,ENE,68,0.2,3.6,29,-99.99,,,-99.99,WSDL version 423,2013-02-12 16:52:00,
2013-02-12 08:57:00,41.6,11.7,30.33,ENE,68,0.6,3.6,29,-99.99,,,-99.99,WSDL version 423,2013-02-12 16:57:00,
2013-02-12 09:02:00,42.6,12.2,30.36,ENE,68,0.0,3.6,28,-99.99,,,-99.99,WSDL version 423,2013-02-12 17:02:00,
2013-02-12 09:07:00,42.8,12.4,30.36,ENE,68,1.0,3.1,29,-99.99,,,-99.99,WSDL version 423,2013-02-12 17:07:00,
2013-02-12 09:12:00,42.7,12.4,30.36,NE,50,1.6,3.6,29,-99.99,,,-99.99,WSDL version 423,2013-02-12 17:12:00,
2013-02-12 09:17:00,42.7,12.3,30.33,NNE,23,0.0,3.6,28,-99.99,,,-99.99,WSDL version 423,2013-02-12 17:17:00,
2013-02-12 09:23:00,45.3,14.1,30.33,NNE,23,0.0,3.1,28,-99.99,,,-99.99,WSDL version 423,2013-02-12 17:23:00,
2013-02-12 09:28:00,46.0,14.4,30.33,NNE,23,0.0,2.7,27,-99.99,,,-99.99,WSDL version 423,2013-02-12 17:28:00,
2013-02-12 09:33:00,46.6,14.6,30.33,NW,326,1.5,3.1,28,-99.99,,,-99.99,WSDL version 423,2013-02-12 17:33:00,
2013-02-12 09:38:00,46.3,14.7,30.33,WNW,293,0.0,3.1,27,-99.99,,,-99.99,WSDL version 423,2013-02-12 17:38:00,
2013-02-12 09:43:00,47.3,15.0,30.33,NNW,340,0.2,3.1,27,-99.99,,,-99.99,WSDL version 423,2013-02-12 17:43:00,
2013-02-12 09:48:00,47.0,14.7,30.36,NNW,338,0.0,4.0,27,-99.99,,,-99.99,WSDL version 423,2013-02-12 17:48:00,
2013-02-12 09:53:00,47.8,15.5,30.36,WNW,300,2.8,4.0,27,-99.99,,,-99.99,WSDL version 423,2013-02-12 17:53:00,
2013-02-12 09:58:00,47.9,15.6,30.36,West,270,2.4,3.6,27,-99.99,,,-99.99,WSDL version 423,2013-02-12 17:58:00,
2013-02-12 10:03:00,49.2,16.6,30.33,West,270,0.0,3.6,27,-99.99,,,-99.99,WSDL version 423,2013-02-12 18:03:00,
2013-02-12 10:08:00,49.3,16.7,30.33,West,270,1.9,3.6,27,-99.99,,,-99.99,WSDL version 423,2013-02-12 18:08:00,
2013-02-12 10:13:00,50.0,16.5,30.33,West,270,1.2,3.6,26,-99.99,,,-99.99,WSDL version 423,2013-02-12 18:13:00,
2013-02-12 10:18:00,50.3,16.7,30.33,North,360,2.2,3.6,26,-99.99,,,-99.99,WSDL version 423,2013-02-12 18:18:00,
2013-02-12 10:23:00,50.2,16.7,30.33,NE,53,1.7,3.6,26,-99.99,,,-99.99,WSDL version 423,2013-02-12 18:23:00,
2013-02-12 10:28:00,49.8,16.3,30.33,NE,51,2.8,4.9,26,-99.99,,,-99.99,WSDL version 423,2013-02-12 18:28:00,
2013-02-12 10:33:00,50.7,17.1,30.33,NNE,23,0.0,4.9,26,-99.99,,,-99.99,WSDL version 423,2013-02-12 18:33:00,
2013-02-12 10:38:00,52.0,18.2,30.33,NNW,338,0.6,3.6,26,-99.99,,,-99.99,WSDL version 423,2013-02-12 18:38:00,
2013-02-12 10:43:00,52.4,18.5,30.33,NNW,338,0.3,3.6,26,-99.99,,,-99.99,WSDL version 423,2013-02-12 18:43:00,
2013-02-12 10:48:00,52.8,18.4,30.33,NNW,338,1.2,4.0,26,-99.99,,,-99.99,WSDL version 423,2013-02-12 18:48:00,
2013-02-12 10:53:00,52.7,16.9,30.33,ESE,108,1.4,4.0,23,-99.99,,,-99.99,WSDL version 423,2013-02-12 18:53:00,
2013-02-12 10:58:00,53.1,16.4,30.33,NNW,338,4.0,5.4,24,-99.99,,,-99.99,WSDL version 423,2013-02-12 18:58:00,
2013-02-12 11:03:00,52.7,17.1,30.33,North,360,1.6,5.4,23,-99.99,,,-99.99,WSDL version 423,2013-02-12 19:03:00,
2013-02-12 11:09:00,52.6,15.8,30.33,NNE,30,3.2,6.3,23,-99.99,,,-99.99,WSDL version 423,2013-02-12 19:09:00,
2013-02-12 11:14:00,52.6,15.9,30.30,NNE,23,0.0,6.3,23,-99.99,,,-99.99,WSDL version 423,2013-02-12 19:14:00,
2013-02-12 11:19:00,53.1,16.3,30.30,NW,318,4.3,5.8,23,-99.99,,,-99.99,WSDL version 423,2013-02-12 19:19:00,
2013-02-12 11:24:00,53.2,16.4,30.30,ENE,68,3.0,5.8,23,-99.99,,,-99.99,WSDL version 423,2013-02-12 19:24:00,
2013-02-12 11:29:00,54.7,17.6,30.30,ESE,121,2.9,4.9,23,-99.99,,,-99.99,WSDL version 423,2013-02-12 19:29:00,
2013-02-12 11:34:00,54.9,17.8,30.30,NNW,348,3.1,5.8,23,-99.99,,,-99.99,WSDL version 423,2013-02-12 19:34:00,
2013-02-12 11:39:00,53.7,16.8,30.30,ENE,78,3.1,8.1,23,-99.99,,,-99.99,WSDL version 423,2013-02-12 19:39:00,
2013-02-12 11:44:00,55.1,17.7,30.30,East,96,1.1,8.1,22,-99.99,,,-99.99,WSDL version 423,2013-02-12 19:44:00,
2013-02-12 11:49:00,55.6,17.4,30.30,East,88,1.8,5.4,22,-99.99,,,-99.99,WSDL version 423,2013-02-12 19:49:00,
2013-02-12 11:54:00,56.3,18.0,30.30,SE,138,1.9,5.4,22,-99.99,,,-99.99,WSDL version 423,2013-02-12 19:54:00,
2013-02-12 11:59:00,57.3,18.8,30.30,ESE,110,0.6,4.0,22,-99.99,,,-99.99,WSDL version 423,2013-02-12 19:59:00,
2013-02-12 12:04:00,57.2,18.7,30.30,NNE,23,2.1,4.0,22,-99.99,,,-99.99,WSDL version 423,2013-02-12 20:04:00,
2013-02-12 12:09:00,56.6,17.9,30.30,ENE,58,0.0,5.8,22,-99.99,,,-99.99,WSDL version 423,2013-02-12 20:09:00,
2013-02-12 12:14:00,57.4,18.9,30.30,ESE,121,2.5,5.8,22,-99.99,,,-99.99,WSDL version 423,2013-02-12 20:14:00,
2013-02-12 12:20:00,58.7,20.0,30.30,ESE,113,1.7,4.5,22,-99.99,,,-99.99,WSDL version 423,2013-02-12 20:20:00,
2013-02-12 12:25:00,58.5,19.8,30.30,East,95,2.2,4.0,22,-99.99,,,-99.99,WSDL version 423,2013-02-12 20:25:00,
2013-02-12 12:30:00,58.3,19.6,30.30,ESE,113,2.1,5.4,22,-99.99,,,-99.99,WSDL version 423,2013-02-12 20:30:00,
2013-02-12 12:35:00,59.0,20.2,30.30,ESE,113,1.0,5.4,22,-99.99,,,-99.99,WSDL version 423,2013-02-12 20:35:00,
2013-02-12 12:40:00,59.0,20.2,30.30,ESE,113,4.3,6.7,22,-99.99,,,-99.99,WSDL version 423,2013-02-12 20:40:00,
2013-02-12 12:45:00,58.9,20.2,30.27,South,173,0.0,6.7,22,-99.99,,,-99.99,WSDL version 423,2013-02-12 20:45:00,
2013-02-12 12:50:00,59.6,20.7,30.27,SSW,203,3.6,4.9,22,-99.99,,,-99.99,WSDL version 423,2013-02-12 20:50:00,
2013-02-12 12:55:00,58.8,20.0,30.27,NNW,338,1.8,4.9,22,-99.99,,,-99.99,WSDL version 423,2013-02-12 20:55:00,
2013-02-12 13:00:00,59.1,20.3,30.27,SSW,205,3.1,4.9,22,-99.99,,,-99.99,WSDL version 423,2013-02-12 21:00:00,
2013-02-12 13:05:00,59.5,20.6,30.27,WNW,301,0.8,4.9,22,-99.99,,,-99.99,WSDL version 423,2013-02-12 21:05:00,
2013-02-12 13:11:00,59.9,21.0,30.27,SW,233,3.6,4.9,22,-99.99,,,-99.99,WSDL version 423,2013-02-12 21:11:00,
2013-02-12 13:16:00,60.1,21.2,30.27,ESE,113,0.0,5.4,22,-99.99,,,-99.99,WSDL version 423,2013-02-12 21:16:00,
2013-02-12 13:21:00,59.8,20.9,30.27,NNW,347,0.4,5.4,22,-99.99,,,-99.99,WSDL version 423,2013-02-12 21:21:00,
2013-02-12 13:26:00,60.6,21.2,30.27,SW,220,4.0,6.3,22,-99.99,,,-99.99,WSDL version 423,2013-02-12 21:26:00,
2013-02-12 13:31:00,59.9,21.0,30.27,West,278,3.3,6.3,22,-99.99,,,-99.99,WSDL version 423,2013-02-12 21:31:00,
2013-02-12 13:36:00,60.2,21.0,30.27,South,175,4.4,6.3,22,-99.99,,,-99.99,WSDL version 423,2013-02-12 21:36:00,
2013-02-12 13:41:00,59.6,20.7,30.27,South,180,2.9,6.3,22,-99.99,,,-99.99,WSDL version 423,2013-02-12 21:41:00,
2013-02-12 13:46:00,60.1,21.0,30.27,WNW,298,3.1,5.8,22,-99.99,,,-99.99,WSDL version 423,2013-02-12 21:46:00,
2013-02-12 13:51:00,59.0,20.2,30.27,NW,313,3.5,6.3,22,-99.99,,,-99.99,WSDL version 423,2013-02-12 21:51:00,
2013-02-12 13:56:00,59.1,20.3,30.27,North,358,3.8,6.3,22,-99.99,,,-99.99,WSDL version 423,2013-02-12 21:56:00,
2013-02-12 14:01:00,58.6,19.9,30.24,NE,51,3.6,5.8,22,-99.99,,,-99.99,WSDL version 423,2013-02-12 22:01:00,
2013-02-12 14:06:00,59.3,20.5,30.24,NNE,33,1.7,4.9,22,-99.99,,,-99.99,WSDL version 423,2013-02-12 22:06:00,
2013-02-12 14:11:00,60.4,21.2,30.24,NNW,340,0.5,4.9,22,-99.99,,,-99.99,WSDL version 423,2013-02-12 22:11:00,
2013-02-12 14:16:00,60.6,21.1,30.24,North,360,2.3,5.8,22,-99.99,,,-99.99,WSDL version 423,2013-02-12 22:16:00,
2013-02-12 14:22:00,60.4,21.1,30.24,NNW,338,0.6,5.4,22,-99.99,,,-99.99,WSDL version 423,2013-02-12 22:22:00,
2013-02-12 14:27:00,61.3,21.1,30.24,NNW,338,0.6,3.6,21,-99.99,,,-99.99,WSDL version 423,2013-02-12 22:27:00,
2013-02-12 14:32:00,60.9,21.1,30.24,NW,305,3.6,4.9,22,-99.99,,,-99.99,WSDL version 423,2013-02-12 22:32:00,
2013-02-12 14:37:00,60.9,21.1,30.24,ESE,103,3.1,4.9,21,-99.99,,,-99.99,WSDL version 423,2013-02-12 22:37:00,
2013-02-12 14:42:00,61.1,21.3,30.24,East,90,3.6,7.2,21,-99.99,,,-99.99,WSDL version 423,2013-02-12 22:42:00,
2013-02-12 14:47:00,60.0,21.0,30.24,NNW,345,3.3,7.2,22,-99.99,,,-99.99,WSDL version 423,2013-02-12 22:47:00,
2013-02-12 14:52:00,60.3,21.3,30.24,NW,325,3.6,7.2,22,-99.99,,,-99.99,WSDL version 423,2013-02-12 22:52:00,
2013-02-12 14:57:00,59.6,20.8,30.24,NNW,338,3.0,5.8,22,-99.99,,,-99.99,WSDL version 423,2013-02-12 22:57:00,
2013-02-12 15:02:00,59.2,20.4,30.24,NNW,343,3.3,8.1,22,-99.99,,,-99.99,WSDL version 423,2013-02-12 23:02:00,
2013-02-12 15:07:00,59.8,20.2,30.24,NE,45,5.2,8.1,19,-99.99,,,-99.99,WSDL version 423,2013-02-12 23:07:00,
2013-02-12 15:13:00,59.3,17.1,30.24,NNE,23,4.4,8.7,19,-99.99,,,-99.99,WSDL version 423,2013-02-12 23:13:00,
2013-02-12 15:18:00,59.8,19.1,30.24,ESE,123,5.6,10.5,22,-99.99,,,-99.99,WSDL version 423,2013-02-12 23:18:00,
2013-02-12 15:23:00,60.7,19.1,30.24,ESE,103,1.6,10.5,19,-99.99,,,-99.99,WSDL version 423,2013-02-12 23:23:00,
2013-02-12 15:28:00,60.8,19.4,30.24,West,273,1.7,5.8,19,-99.99,,,-99.99,WSDL version 423,2013-02-12 23:28:00,
2013-02-12 15:33:00,61.0,19.3,30.24,South,174,2.1,5.8,21,-99.99,,,-99.99,WSDL version 423,2013-02-12 23:33:00,
2013-02-12 15:38:00,61.1,18.9,30.24,East,90,1.4,4.0,19,-99.99,,,-99.99,WSDL version 423,2013-02-12 23:38:00,
2013-02-12 15:43:00,61.4,18.8,30.24,ENE,60,1.6,5.8,19,-99.99,,,-99.99,WSDL version 423,2013-02-12 23:43:00,
2013-02-12 15:48:00,59.9,17.6,30.24,ENE,75,4.5,5.8,19,-99.99,,,-99.99,WSDL version 423,2013-02-12 23:48:00,
2013-02-12 15:53:00,59.6,17.3,30.24,NNE,17,4.1,7.2,19,-99.99,,,-99.99,WSDL version 423,2013-02-12 23:53:00,
2013-02-12 15:58:00,59.9,17.6,30.24,East,98,2.8,7.2,19,-99.99,,,-99.99,WSDL version 423,2013-02-12 23:58:00,
2013-02-12 16:03:00,60.0,17.7,30.27,ENE,68,2.2,6.3,19,-99.99,,,-99.99,WSDL version 423,2013-02-13 00:03:00,
2013-02-12 16:08:00,60.1,17.8,30.27,NE,51,3.0,8.1,19,-99.99,,,-99.99,WSDL version 423,2013-02-13 00:08:00,
2013-02-12 16:13:00,59.2,17.0,30.27,ENE,59,5.6,8.3,19,-99.99,,,-99.99,WSDL version 423,2013-02-13 00:13:00,
2013-02-12 16:18:00,58.4,16.3,30.24,NE,50,4.9,9.2,19,-99.99,,,-99.99,WSDL version 423,2013-02-13 00:18:00,
2013-02-12 16:23:00,58.2,16.2,30.24,ENE,68,5.0,8.1,19,-99.99,,,-99.99,WSDL version 423,2013-02-13 00:23:00,
2013-02-12 16:28:00,58.0,16.0,30.24,ENE,60,4.6,7.6,19,-99.99,,,-99.99,WSDL version 423,2013-02-13 00:28:00,
2013-02-12 16:33:00,57.8,15.8,30.24,ENE,68,5.7,8.1,19,-99.99,,,-99.99,WSDL version 423,2013-02-13 00:33:00,
2013-02-12 16:38:00,57.2,15.6,30.24,East,79,6.6,9.2,20,-99.99,,,-99.99,WSDL version 423,2013-02-13 00:38:00,
2013-02-12 16:43:00,57.1,15.7,30.24,NNE,33,4.4,9.2,20,-99.99,,,-99.99,WSDL version 423,2013-02-13 00:43:00,
2013-02-12 16:48:00,56.7,16.1,30.24,NE,45,6.5,8.3,20,-99.99,,,-99.99,WSDL version 423,2013-02-13 00:48:00,
2013-02-12 16:53:00,56.5,15.9,30.24,NE,53,5.2,8.3,20,-99.99,,,-99.99,WSDL version 423,2013-02-13 00:53:00,
2013-02-12 16:59:00,56.2,15.6,30.24,NNE,28,5.6,9.6,20,-99.99,,,-99.99,WSDL version 423,2013-02-13 00:59:00,
2013-02-12 17:04:00,55.8,15.3,30.24,NNE,31,4.3,9.6,20,-99.99,,,-99.99,WSDL version 423,2013-02-13 01:04:00,
2013-02-12 17:09:00,55.3,14.9,30.24,NNE,28,4.3,7.6,20,-99.99,,,-99.99,WSDL version 423,2013-02-13 01:09:00,
2013-02-12 17:14:00,55.0,14.6,30.24,NE,53,4.6,7.2,20,-99.99,,,-99.99,WSDL version 423,2013-02-13 01:14:00,
2013-02-12 17:19:00,54.6,14.3,30.24,NE,45,3.0,7.2,20,-99.99,,,-99.99,WSDL version 423,2013-02-13 01:19:00,
2013-02-12 17:24:00,54.1,13.9,30.24,NE,45,1.5,4.9,20,-99.99,,,-99.99,WSDL version 423,2013-02-13 01:24:00,
2013-02-12 17:29:00,53.8,13.7,30.24,NNE,31,2.8,5.4,20,-99.99,,,-99.99,WSDL version 423,2013-02-13 01:29:00,
2013-02-12 17:34:00,53.4,14.2,30.24,NE,48,2.0,5.4,21,-99.99,,,-99.99,WSDL version 423,2013-02-13 01:34:00,
2013-02-12 17:39:00,52.9,14.1,30.24,ENE,60,3.0,5.8,21,-99.99,,,-99.99,WSDL version 423,2013-02-13 01:39:00,
2013-02-12 17:44:00,52.5,13.7,30.24,ENE,68,3.0,5.8,21,-99.99,,,-99.99,WSDL version 423,2013-02-13 01:44:00,
2013-02-12 17:49:00,52.3,13.5,30.24,NE,45,2.8,4.9,21,-99.99,,,-99.99,WSDL version 423,2013-02-13 01:49:00,
2013-02-12 17:54:00,51.9,13.2,30.24,NE,45,2.7,5.8,21,-99.99,,,-99.99,WSDL version 423,2013-02-13 01:54:00,
2013-02-12 17:59:00,51.5,12.9,30.24,ENE,68,2.3,5.8,21,-99.99,,,-99.99,WSDL version 423,2013-02-13 01:59:00,
2013-02-12 18:04:00,51.1,12.5,30.24,ENE,78,2.8,4.9,21,-99.99,,,-99.99,WSDL version 423,2013-02-13 02:04:00,
2013-02-12 18:09:00,50.6,14.1,30.24,East,90,2.5,5.4,24,-99.99,,,-99.99,WSDL version 423,2013-02-13 02:09:00,
2013-02-12 18:14:00,50.0,14.7,30.27,East,90,2.0,5.4,24,-99.99,,,-99.99,WSDL version 423,2013-02-13 02:14:00,
2013-02-12 18:19:00,49.6,14.2,30.27,East,90,0.0,4.5,24,-99.99,,,-99.99,WSDL version 423,2013-02-13 02:19:00,
2013-02-12 18:24:00,49.1,13.8,30.27,East,90,0.0,2.7,24,-99.99,,,-99.99,WSDL version 423,2013-02-13 02:24:00,
2013-02-12 18:29:00,48.7,13.5,30.27,East,90,0.0,2.7,24,-99.99,,,-99.99,WSDL version 423,2013-02-13 02:29:00,
2013-02-12 18:34:00,48.4,13.2,30.27,East,90,0.0,3.1,24,-99.99,,,-99.99,WSDL version 423,2013-02-13 02:34:00,
2013-02-12 18:39:00,47.8,12.8,30.27,East,90,0.0,3.1,24,-99.99,,,-99.99,WSDL version 423,2013-02-13 02:39:00,
2013-02-12 18:44:00,47.3,12.3,30.27,East,90,0.0,0.0,24,-99.99,,,-99.99,WSDL version 423,2013-02-13 02:44:00,
2013-02-12 18:49:00,46.5,12.0,30.27,East,90,0.0,0.0,25,-99.99,,,-99.99,WSDL version 423,2013-02-13 02:49:00,
2013-02-12 18:55:00,46.0,12.1,30.27,East,90,0.0,0.0,25,-99.99,,,-99.99,WSDL version 423,2013-02-13 02:55:00,
2013-02-12 19:00:00,45.5,11.7,30.27,East,90,0.0,2.2,25,-99.99,,,-99.99,WSDL version 423,2013-02-13 03:00:00,
2013-02-12 19:05:00,45.2,11.5,30.27,East,90,0.0,2.2,25,-99.99,,,-99.99,WSDL version 423,2013-02-13 03:05:00,
2013-02-12 19:10:00,44.8,11.1,30.27,East,90,0.0,2.2,25,-99.99,,,-99.99,WSDL version 423,2013-02-13 03:10:00,
2013-02-12 19:15:00,44.3,10.7,30.27,East,90,0.0,0.0,25,-99.99,,,-99.99,WSDL version 423,2013-02-13 03:15:00,
2013-02-12 19:20:00,44.1,13.1,30.27,East,90,1.2,3.1,28,-99.99,,,-99.99,WSDL version 423,2013-02-13 03:20:00,
2013-02-12 19:25:00,44.2,13.2,30.27,East,90,2.1,3.1,28,-99.99,,,-99.99,WSDL version 423,2013-02-13 03:25:00,
2013-02-12 19:30:00,44.1,13.1,30.27,East,90,0.0,3.1,28,-99.99,,,-99.99,WSDL version 423,2013-02-13 03:30:00,
2013-02-12 19:35:00,43.9,11.6,30.27,East,90,2.2,3.1,28,-99.99,,,-99.99,WSDL version 423,2013-02-13 03:35:00,
2013-02-12 19:40:00,43.8,12.8,30.27,East,90,2.6,3.6,28,-99.99,,,-99.99,WSDL version 423,2013-02-13 03:40:00,
2013-02-12 19:45:00,44.2,13.2,30.27,East,90,0.7,4.0,28,-99.99,,,-99.99,WSDL version 423,2013-02-13 03:45:00,
2013-02-12 19:50:00,44.2,13.2,30.27,East,90,1.0,4.0,28,-99.99,,,-99.99,WSDL version 423,2013-02-13 03:50:00,
2013-02-12 19:55:00,44.2,13.1,30.27,East,90,0.0,2.7,28,-99.99,,,-99.99,WSDL version 423,2013-02-13 03:55:00,
2013-02-12 20:00:00,44.3,13.1,30.27,SSE,155,3.4,5.4,27,-99.99,,,-99.99,WSDL version 423,2013-02-13 04:00:00,
2013-02-12 20:05:00,44.9,13.0,30.27,WSW,248,2.9,5.8,27,-99.99,,,-99.99,WSDL version 423,2013-02-13 04:05:00,
2013-02-12 20:10:00,44.8,12.9,30.27,SW,225,1.6,5.8,27,-99.99,,,-99.99,WSDL version 423,2013-02-13 04:10:00,
2013-02-12 20:15:00,44.4,13.0,30.27,SW,225,1.2,4.0,28,-99.99,,,-99.99,WSDL version 423,2013-02-13 04:15:00,
2013-02-12 20:20:00,43.9,12.9,30.27,SW,225,0.0,3.1,28,-99.99,,,-99.99,WSDL version 423,2013-02-13 04:20:00,
2013-02-12 20:25:00,43.2,12.3,30.27,SW,225,0.0,2.2,28,-99.99,,,-99.99,WSDL version 423,2013-02-13 04:25:00,
2013-02-12 20:30:00,42.4,11.6,30.27,SW,225,0.0,0.0,28,-99.99,,,-99.99,WSDL version 423,2013-02-13 04:30:00,
2013-02-12 20:35:00,42.3,11.5,30.27,SW,225,0.0,0.0,28,-99.99,,,-99.99,WSDL version 423,2013-02-13 04:35:00,
2013-02-12 20:40:00,42.1,11.4,30.27,SW,225,0.0,0.0,28,-99.99,,,-99.99,WSDL version 423,2013-02-13 04:40:00,
2013-02-12 20:45:00,41.5,10.8,30.27,SW,225,0.0,0.0,28,-99.99,,,-99.99,WSDL version 423,2013-02-13 04:45:00,
2013-02-12 20:50:00,40.4,9.9,30.27,SW,225,0.0,0.0,28,-99.99,,,-99.99,WSDL version 423,2013-02-13 04:50:00,
2013-02-12 20:55:00,40.1,9.6,30.27,SW,225,0.0,0.0,28,-99.99,,,-99.99,WSDL version 423,2013-02-13 04:55:00,
2013-02-12 21:00:00,40.1,10.4,30.27,SW,225,0.0,0.0,29,-99.99,,,-99.99,WSDL version 423,2013-02-13 05:00:00,
2013-02-12 21:01:00,40.1,10.4,30.27,SW,225,0.0,0.0,29,-99.99,,,-99.99,WSDL version 423,2013-02-13 05:01:00,
2013-02-12 21:03:00,40.0,10.3,30.27,SW,225,0.0,0.0,29,-99.99,,,-99.99,WSDL version 423,2013-02-13 05:03:00,
2013-02-12 21:06:00,39.5,9.9,30.27,SW,225,0.0,0.0,29,-99.99,,,-99.99,WSDL version 423,2013-02-13 05:06:00,
2013-02-12 21:12:00,39.5,9.8,30.27,SW,225,0.0,0.0,29,-99.99,,,-99.99,WSDL version 423,2013-02-13 05:12:00,
2013-02-12 21:17:00,40.0,10.3,30.27,SW,225,0.0,0.0,29,-99.99,,,-99.99,WSDL version 423,2013-02-13 05:17:00,
2013-02-12 21:22:00,40.0,10.3,30.27,SW,225,0.0,0.0,29,-99.99,,,-99.99,WSDL version 423,2013-02-13 05:22:00,
2013-02-12 21:27:00,39.5,9.9,30.27,SW,225,0.0,0.0,29,-99.99,,,-99.99,WSDL version 423,2013-02-13 05:27:00,
2013-02-12 21:32:00,39.2,9.6,30.27,SW,225,0.0,0.0,29,-99.99,,,-99.99,WSDL version 423,2013-02-13 05:32:00,
2013-02-12 21:37:00,38.9,9.4,30.27,SW,225,0.0,0.0,29,-99.99,,,-99.99,WSDL version 423,2013-02-13 05:37:00,
2013-02-12 21:42:00,38.4,8.9,30.27,SW,225,0.0,0.0,29,-99.99,,,-99.99,WSDL version 423,2013-02-13 05:42:00,
2013-02-12 21:47:00,37.8,8.4,30.27,SW,225,0.0,0.0,29,-99.99,,,-99.99,WSDL version 423,2013-02-13 05:47:00,
2013-02-12 21:52:00,37.8,8.4,30.27,SW,225,0.0,0.0,29,-99.99,,,-99.99,WSDL version 423,2013-02-13 05:52:00,
2013-02-12 21:57:00,37.6,8.2,30.27,SW,225,0.0,2.2,29,-99.99,,,-99.99,WSDL version 423,2013-02-13 05:57:00,
2013-02-12 22:02:00,37.5,8.1,30.27,SW,225,0.0,3.1,29,-99.99,,,-99.99,WSDL version 423,2013-02-13 06:02:00,
2013-02-12 22:07:00,37.5,8.3,30.27,SW,225,2.2,3.1,30,-99.99,,,-99.99,WSDL version 423,2013-02-13 06:07:00,
2013-02-12 22:12:00,38.1,8.6,30.27,SW,225,2.7,4.0,29,-99.99,,,-99.99,WSDL version 423,2013-02-13 06:12:00,
2013-02-12 22:17:00,38.9,9.3,30.27,SW,225,2.2,4.0,29,-99.99,,,-99.99,WSDL version 423,2013-02-13 06:17:00,
2013-02-12 22:22:00,39.2,9.6,30.27,SW,225,2.2,3.1,29,-99.99,,,-99.99,WSDL version 423,2013-02-13 06:22:00,
2013-02-12 22:27:00,38.9,9.4,30.27,SW,225,0.0,2.7,29,-99.99,,,-99.99,WSDL version 423,2013-02-13 06:27:00,
2013-02-12 22:32:00,38.9,9.3,30.27,SW,225,0.0,2.7,29,-99.99,,,-99.99,WSDL version 423,2013-02-13 06:32:00,
2013-02-12 22:37:00,38.8,9.3,30.27,SW,225,0.0,2.7,29,-99.99,,,-99.99,WSDL version 423,2013-02-13 06:37:00,
2013-02-12 22:42:00,38.9,9.3,30.27,SW,225,0.0,0.0,29,-99.99,,,-99.99,WSDL version 423,2013-02-13 06:42:00,
2013-02-12 22:47:00,38.5,9.0,30.27,SW,225,0.0,0.0,29,-99.99,,,-99.99,WSDL version 423,2013-02-13 06:47:00,
2013-02-12 22:52:00,38.7,9.1,30.27,SW,225,2.6,3.6,29,-99.99,,,-99.99,WSDL version 423,2013-02-13 06:52:00,
2013-02-12 22:57:00,39.2,9.6,30.27,SW,225,0.0,3.6,29,-99.99,,,-99.99,WSDL version 423,2013-02-13 06:57:00,
2013-02-12 23:02:00,39.0,9.4,30.27,SW,225,1.5,4.0,29,-99.99,,,-99.99,WSDL version 423,2013-02-13 07:02:00,
2013-02-12 23:07:00,38.1,9.4,30.27,SW,225,0.2,4.0,30,-99.99,,,-99.99,WSDL version 423,2013-02-13 07:07:00,
2013-02-12 23:12:00,37.6,8.9,30.27,SW,225,0.0,3.1,30,-99.99,,,-99.99,WSDL version 423,2013-02-13 07:12:00,
2013-02-12 23:17:00,37.1,8.5,30.27,SW,225,0.0,2.7,30,-99.99,,,-99.99,WSDL version 423,2013-02-13 07:17:00,
2013-02-12 23:22:00,36.8,8.3,30.27,SW,225,0.0,2.2,30,-99.99,,,-99.99,WSDL version 423,2013-02-13 07:22:00,
2013-02-12 23:28:00,36.1,7.6,30.27,SW,225,0.0,0.0,30,-99.99,,,-99.99,WSDL version 423,2013-02-13 07:28:00,
2013-02-12 23:33:00,35.6,7.6,30.27,SW,225,0.0,0.0,31,-99.99,,,-99.99,WSDL version 423,2013-02-13 07:33:00,
2013-02-12 23:38:00,35.5,7.8,30.27,SW,225,0.0,0.0,31,-99.99,,,-99.99,WSDL version 423,2013-02-13 07:38:00,
2013-02-12 23:43:00,35.3,7.7,30.27,SW,225,2.0,2.7,31,-99.99,,,-99.99,WSDL version 423,2013-02-13 07:43:00,
2013-02-12 23:48:00,35.4,7.7,30.27,SW,225,0.0,2.7,31,-99.99,,,-99.99,WSDL version 423,2013-02-13 07:48:00,
2013-02-12 23:53:00,34.8,7.2,30.27,SW,225,0.0,2.2,31,-99.99,,,-99.99,WSDL version 423,2013-02-13 07:53:00,
2013-02-12 23:58:00,34.6,7.8,30.27,SW,225,0.0,2.7,32,-99.99,,,-99.99,WSDL version 423,2013-02-13 07:58:00,